Time;durP1;ratioP1;P1;durP2;ratioP2;P2;SDS_P1;SDS_P2;PMS_P1;PMS_P2;Temp;Humidity;BMP_temperature;BMP_pressure;BME280_temperature;BME280_humidity;BME280_pressure;Samples;Min_cycle;Max_cycle;Signal;HPM_P1;HPM_P2
2023/06/27 00:01:44;;;;;;;0.00;0.00;;;17.00;69.20;;;;;;5067884;28;20041;-66
2023/06/27 00:04:10;;;;;;;0.00;0.00;;;17.10;68.80;;;;;;5068704;28;20501;-66
2023/06/27 00:06:41;;;;;;;0.00;0.00;;;17.00;68.30;;;;;;5068198;28;20083;-66
2023/06/27 00:09:10;;;;;;;0.00;0.00;;;17.10;68.80;;;;;;5068413;28;20049;-66
2023/06/27 00:11:39;;;;;;;0.00;0.00;;;17.10;69.20;;;;;;5068858;28;20136;-67
2023/06/27 00:14:08;;;;;;;0.00;0.00;;;17.00;69.50;;;;;;5069055;28;20131;-66
2023/06/27 00:16:34;;;;;;;0.00;0.00;;;17.00;69.60;;;;;;5068584;28;20144;-66
2023/06/27 00:19:04;;;;;;;0.00;0.00;;;16.90;69.00;;;;;;5068426;28;20045;-66
2023/06/27 00:21:34;;;;;;;0.00;0.00;;;16.90;69.40;;;;;;5068616;28;20041;-66
2023/06/27 00:24:00;;;;;;;0.00;0.00;;;16.90;68.80;;;;;;5068676;28;20062;-66
2023/06/27 00:26:27;;;;;;;0.00;0.00;;;16.90;69.00;;;;;;5067222;28;20047;-66
2023/06/27 00:28:54;;;;;;;0.00;0.00;;;16.80;68.90;;;;;;5067656;28;20049;-66
2023/06/27 00:31:19;;;;;;;0.30;0.30;;;16.80;68.50;;;;;;5067677;28;20044;-66
2023/06/27 00:33:45;;;;;;;0.00;0.00;;;16.80;69.00;;;;;;5068715;28;20040;-66
2023/06/27 00:36:11;;;;;;;0.00;0.00;;;16.80;69.20;;;;;;5068123;28;20099;-67
2023/06/27 00:38:36;;;;;;;0.00;0.00;;;16.80;69.30;;;;;;5068588;28;20047;-66
2023/06/27 00:41:02;;;;;;;0.00;0.00;;;16.80;69.70;;;;;;5068473;28;20090;-66
2023/06/27 00:43:28;;;;;;;0.00;0.00;;;16.80;69.60;;;;;;5068373;28;20037;-66
2023/06/27 00:45:54;;;;;;;0.00;0.00;;;16.80;69.40;;;;;;5067184;28;20083;-66
2023/06/27 00:48:20;;;;;;;0.10;0.10;;;16.70;69.70;;;;;;5067344;28;20712;-67
2023/06/27 00:50:46;;;;;;;0.00;0.00;;;16.70;69.90;;;;;;5067840;28;20497;-66
2023/06/27 00:53:12;;;;;;;0.00;0.00;;;16.70;69.80;;;;;;5068123;28;20416;-66
2023/06/27 00:55:39;;;;;;;0.00;0.00;;;16.70;69.70;;;;;;5068141;28;20131;-66
2023/06/27 00:58:09;;;;;;;0.00;0.00;;;16.70;70.30;;;;;;5068061;28;20040;-66
2023/06/27 01:00:36;;;;;;;0.00;0.00;;;16.70;70.60;;;;;;5066449;28;20056;-66
2023/06/27 01:03:02;;;;;;;0.00;0.00;;;16.60;71.10;;;;;;5068922;28;20060;-66
2023/06/27 01:05:29;;;;;;;0.00;0.00;;;16.60;70.60;;;;;;5071820;28;20081;-66
2023/06/27 01:07:59;;;;;;;0.00;0.00;;;16.60;70.80;;;;;;5070963;28;20032;-66
2023/06/27 01:10:52;;;;;;;0.20;0.20;;;16.60;70.30;;;;;;5071737;28;20040;-66
2023/06/27 01:13:28;;;;;;;0.00;0.00;;;16.60;70.90;;;;;;5069805;28;20036;-66
2023/06/27 01:15:55;;;;;;;0.00;0.00;;;16.60;71.70;;;;;;5071465;28;20565;-66
2023/06/27 01:18:22;;;;;;;0.00;0.00;;;16.60;71.90;;;;;;5072023;28;20041;-67
2023/06/27 01:20:49;;;;;;;0.00;0.00;;;16.60;71.70;;;;;;5071531;28;20450;-66
2023/06/27 01:23:22;;;;;;;0.00;0.00;;;16.50;71.40;;;;;;5069745;28;20109;-67
2023/06/27 01:25:50;;;;;;;0.00;0.00;;;16.50;71.90;;;;;;5071745;28;20486;-66
2023/06/27 01:28:17;;;;;;;0.13;0.13;;;16.50;71.20;;;;;;5071294;28;20356;-66
2023/06/27 01:30:42;;;;;;;0.00;0.00;;;16.50;70.80;;;;;;5071217;28;20440;-66
2023/06/27 01:33:23;;;;;;;0.00;0.00;;;16.50;71.10;;;;;;5071147;28;20047;-66
2023/06/27 01:35:57;;;;;;;0.00;0.00;;;16.50;71.60;;;;;;5070929;28;20044;-66
2023/06/27 01:39:03;;;;;;;0.00;0.00;;;16.40;71.60;;;;;;5071341;28;20448;-66
2023/06/27 01:41:32;;;;;;;0.00;0.00;;;16.40;71.50;;;;;;5067120;28;20052;-66
2023/06/27 01:44:01;;;;;;;0.00;0.00;;;16.40;71.50;;;;;;5068626;28;20071;-66
2023/06/27 01:46:27;;;;;;;0.00;0.00;;;16.50;71.70;;;;;;5070477;28;20132;-66
2023/06/27 01:48:54;;;;;;;0.00;0.00;;;16.40;72.00;;;;;;5072015;28;20695;-66
2023/06/27 01:51:20;;;;;;;0.00;0.00;;;16.50;71.80;;;;;;5071896;28;20501;-66
2023/06/27 01:53:45;;;;;;;0.00;0.00;;;16.40;71.20;;;;;;5071904;28;20056;-66
2023/06/27 01:56:12;;;;;;;0.00;0.00;;;16.40;70.70;;;;;;5071931;28;20095;-66
2023/06/27 01:58:38;;;;;;;0.00;0.00;;;16.40;70.80;;;;;;5071605;28;20045;-66
2023/06/27 02:01:04;;;;;;;0.00;0.00;;;16.40;70.80;;;;;;5071078;28;20051;-66
2023/06/27 02:03:30;;;;;;;0.00;0.00;;;16.50;70.50;;;;;;5071073;28;20037;-66
2023/06/27 02:05:55;;;;;;;0.00;0.00;;;16.40;70.60;;;;;;5070847;28;20051;-65
2023/06/27 02:08:21;;;;;;;0.00;0.00;;;16.40;70.80;;;;;;5071580;28;20072;-66
2023/06/27 02:10:46;;;;;;;0.00;0.00;;;16.40;70.50;;;;;;5071028;28;20040;-66
2023/06/27 02:13:12;;;;;;;0.00;0.00;;;16.40;70.30;;;;;;5070714;28;20558;-66
2023/06/27 02:15:38;;;;;;;0.00;0.00;;;16.40;70.00;;;;;;5069875;28;20401;-66
2023/06/27 02:18:04;;;;;;;0.00;0.00;;;16.40;69.90;;;;;;5071144;28;20041;-66
2023/06/27 02:20:30;;;;;;;0.00;0.00;;;16.30;70.10;;;;;;5070652;28;20536;-66
2023/06/27 02:22:56;;;;;;;0.00;0.00;;;16.30;69.90;;;;;;5052498;28;20045;-66
2023/06/27 02:25:22;;;;;;;0.00;0.00;;;16.30;69.70;;;;;;5070808;28;20047;-67
2023/06/27 02:27:47;;;;;;;0.00;0.00;;;16.30;69.90;;;;;;5070743;28;20049;-66
2023/06/27 02:30:13;;;;;;;0.00;0.00;;;16.30;69.90;;;;;;5070880;28;20106;-67
2023/06/27 02:32:39;;;;;;;0.00;0.00;;;16.30;69.80;;;;;;5069295;28;20136;-66
2023/06/27 02:35:05;;;;;;;0.00;0.00;;;16.30;69.70;;;;;;5070357;28;20060;-67
2023/06/27 02:37:30;;;;;;;0.00;0.00;;;16.30;69.90;;;;;;5052331;28;20135;-67
2023/06/27 02:39:57;;;;;;;0.00;0.00;;;16.30;69.90;;;;;;5070697;28;20136;-67
2023/06/27 02:42:22;;;;;;;0.00;0.00;;;16.20;69.80;;;;;;5070801;28;20058;-66
2023/06/27 02:44:48;;;;;;;0.00;0.00;;;16.30;70.00;;;;;;5070292;28;20416;-67
2023/06/27 02:47:14;;;;;;;0.00;0.00;;;16.30;69.50;;;;;;5069960;28;20159;-66
2023/06/27 02:49:42;;;;;;;0.00;0.00;;;16.30;69.80;;;;;;5068881;28;20044;-67
2023/06/27 02:52:07;;;;;;;0.00;0.00;;;16.20;70.00;;;;;;5052366;28;20056;-66
2023/06/27 02:54:33;;;;;;;0.00;0.00;;;16.20;70.30;;;;;;5070087;28;20416;-66
2023/06/27 02:56:59;;;;;;;0.00;0.00;;;16.20;70.80;;;;;;5069686;28;20048;-66
2023/06/27 02:59:24;;;;;;;0.00;0.00;;;16.10;70.90;;;;;;5070462;28;20040;-66
2023/06/27 03:01:50;;;;;;;0.00;0.00;;;16.10;70.70;;;;;;5070050;28;20052;-66
2023/06/27 03:04:20;;;;;;;0.00;0.00;;;16.20;70.60;;;;;;5068903;28;20044;-66
2023/06/27 03:06:46;;;;;;;0.00;0.00;;;16.10;71.20;;;;;;5069546;28;20054;-67
2023/06/27 03:09:11;;;;;;;0.00;0.00;;;16.10;70.90;;;;;;5069177;28;20040;-66
2023/06/27 03:11:37;;;;;;;0.00;0.00;;;16.20;70.60;;;;;;5068999;28;20044;-66
2023/06/27 03:14:02;;;;;;;0.00;0.00;;;16.20;70.90;;;;;;5070143;28;20040;-66
2023/06/27 03:16:28;;;;;;;0.00;0.00;;;16.10;71.70;;;;;;5069277;28;20159;-66
2023/06/27 03:18:53;;;;;;;0.00;0.00;;;16.20;71.20;;;;;;5069183;28;20080;-66
2023/06/27 03:21:19;;;;;;;0.00;0.00;;;16.10;71.70;;;;;;5069587;28;20051;-66
2023/06/27 03:23:45;;;;;;;0.00;0.00;;;16.20;71.50;;;;;;5069814;28;20536;-66
2023/06/27 03:26:10;;;;;;;0.85;0.52;;;16.20;71.70;;;;;;5069589;28;20040;-66
2023/06/27 03:28:36;;;;;;;0.00;0.00;;;16.20;71.90;;;;;;5068999;28;20045;-66
2023/06/27 03:31:01;;;;;;;0.00;0.00;;;16.20;71.60;;;;;;5069236;28;20040;-67
2023/06/27 03:33:27;;;;;;;0.00;0.00;;;16.20;71.80;;;;;;5069171;28;20048;-66
2023/06/27 03:35:53;;;;;;;0.00;0.00;;;16.30;71.70;;;;;;5069486;28;20037;-66
2023/06/27 03:38:18;;;;;;;0.00;0.00;;;16.30;72.00;;;;;;5051542;28;20044;-66
2023/06/27 03:40:44;;;;;;;0.00;0.00;;;16.40;72.10;;;;;;5067168;28;20657;-66
2023/06/27 03:43:12;;;;;;;0.00;0.00;;;16.40;71.90;;;;;;5069650;28;20048;-66
2023/06/27 03:45:38;;;;;;;0.00;0.00;;;16.40;71.90;;;;;;5069052;28;20498;-66
2023/06/27 03:48:05;;;;;;;0.00;0.00;;;16.40;71.70;;;;;;5069912;28;20044;-67
2023/06/27 03:50:32;;;;;;;0.00;0.00;;;16.40;71.70;;;;;;5069206;28;20044;-66
2023/06/27 03:53:00;;;;;;;0.00;0.00;;;16.40;71.70;;;;;;5069047;28;20401;-66
2023/06/27 03:55:26;;;;;;;0.00;0.00;;;16.40;72.40;;;;;;5068446;28;20052;-68
2023/06/27 03:57:52;;;;;;;0.00;0.00;;;16.50;72.10;;;;;;5069146;28;20055;-66
2023/06/27 04:00:17;;;;;;;0.00;0.00;;;16.50;72.40;;;;;;5068927;28;20509;-66
2023/06/27 04:02:43;;;;;;;0.00;0.00;;;16.50;72.10;;;;;;5067376;28;20041;-66
2023/06/27 04:05:09;;;;;;;0.00;0.00;;;16.50;72.20;;;;;;5067927;28;20445;-66
2023/06/27 04:07:34;;;;;;;0.00;0.00;;;16.50;72.00;;;;;;5068145;28;20059;-66
2023/06/27 04:10:00;;;;;;;0.00;0.00;;;16.50;72.10;;;;;;5068723;28;20119;-66
2023/06/27 04:12:25;;;;;;;0.00;0.00;;;16.50;72.30;;;;;;5067599;28;20445;-66
2023/06/27 04:14:51;;;;;;;0.00;0.00;;;16.50;72.10;;;;;;5068257;28;20048;-67
2023/06/27 04:17:16;;;;;;;0.00;0.00;;;16.50;72.40;;;;;;5068840;28;20047;-66
2023/06/27 04:19:42;;;;;;;0.00;0.00;;;16.50;72.10;;;;;;5068606;28;20111;-66
2023/06/27 04:22:08;;;;;;;0.00;0.00;;;16.50;72.00;;;;;;5068654;28;21327;-66
2023/06/27 04:24:33;;;;;;;0.00;0.00;;;16.50;72.40;;;;;;5066921;28;20119;-66
2023/06/27 04:26:59;;;;;;;0.00;0.00;;;16.50;72.60;;;;;;5050759;28;20045;-67
2023/06/27 04:29:24;;;;;;;0.00;0.00;;;16.60;73.00;;;;;;5067271;28;20135;-66
2023/06/27 04:31:50;;;;;;;0.00;0.00;;;16.50;73.20;;;;;;5067647;28;20088;-66
2023/06/27 04:34:16;;;;;;;0.00;0.00;;;16.50;73.40;;;;;;5068198;28;20048;-66
2023/06/27 04:36:41;;;;;;;0.00;0.00;;;16.50;73.00;;;;;;5068513;28;20107;-66
2023/06/27 04:39:10;;;;;;;0.00;0.00;;;16.60;73.50;;;;;;5071731;28;20044;-66
2023/06/27 04:41:36;;;;;;;0.00;0.00;;;16.60;73.20;;;;;;5071752;28;20501;-66
2023/06/27 04:44:02;;;;;;;0.00;0.00;;;16.70;72.70;;;;;;5072741;28;20049;-66
2023/06/27 04:46:28;;;;;;;0.00;0.00;;;16.70;73.00;;;;;;5054309;28;20049;-66
2023/06/27 04:48:58;;;;;;;0.00;0.00;;;16.80;72.80;;;;;;5072000;28;20086;-66
2023/06/27 04:51:28;;;;;;;0.00;0.00;;;16.80;72.80;;;;;;5072324;28;20048;-67
2023/06/27 04:53:54;;;;;;;0.00;0.00;;;16.80;73.40;;;;;;5072145;28;20045;-66
2023/06/27 04:56:19;;;;;;;0.00;0.00;;;16.80;73.20;;;;;;5072025;28;20394;-66
2023/06/27 04:58:45;;;;;;;0.00;0.00;;;16.90;73.20;;;;;;5072622;28;20567;-66
2023/06/27 05:01:11;;;;;;;0.00;0.00;;;16.90;73.80;;;;;;5072518;28;20090;-66
2023/06/27 05:03:37;;;;;;;0.00;0.00;;;16.90;74.00;;;;;;5071429;28;20102;-66
2023/06/27 05:06:04;;;;;;;0.00;0.00;;;17.00;74.30;;;;;;5072472;28;20048;-66
2023/06/27 05:08:30;;;;;;;0.00;0.00;;;17.00;74.80;;;;;;5072314;28;20037;-67
2023/06/27 05:10:56;;;;;;;0.00;0.00;;;17.00;74.50;;;;;;5069809;28;20075;-66
2023/06/27 05:13:22;;;;;;;0.00;0.00;;;17.10;74.70;;;;;;5070418;28;20441;-66
2023/06/27 05:15:48;;;;;;;0.00;0.00;;;17.10;74.90;;;;;;5071091;28;20110;-66
2023/06/27 05:18:14;;;;;;;0.45;0.40;;;17.20;74.50;;;;;;5071611;28;20040;-66
2023/06/27 05:20:40;;;;;;;0.00;0.00;;;17.30;74.30;;;;;;5071907;28;20063;-66
2023/06/27 05:23:06;;;;;;;0.00;0.00;;;17.30;74.70;;;;;;5053905;28;20041;-66
2023/06/27 05:25:32;;;;;;;1.20;0.70;;;17.30;75.00;;;;;;5053323;28;20044;-66
2023/06/27 05:27:58;;;;;;;0.00;0.00;;;17.40;74.80;;;;;;5070186;28;20037;-66
2023/06/27 05:30:25;;;;;;;0.00;0.00;;;17.50;74.90;;;;;;5070926;28;20037;-67
2023/06/27 05:32:57;;;;;;;0.00;0.00;;;17.50;74.30;;;;;;5070717;28;20040;-67
2023/06/27 05:35:24;;;;;;;0.00;0.00;;;17.50;74.30;;;;;;5070450;28;20430;-64
2023/06/27 05:37:50;;;;;;;0.00;0.00;;;17.60;74.80;;;;;;5070896;28;20064;-66
2023/06/27 05:40:15;;;;;;;0.00;0.00;;;17.70;75.10;;;;;;5071794;28;20048;-66
2023/06/27 05:42:41;;;;;;;0.00;0.00;;;17.70;74.90;;;;;;5070124;28;20041;-66
2023/06/27 05:45:07;;;;;;;0.00;0.00;;;17.80;74.30;;;;;;5059952;28;20037;-66
2023/06/27 05:47:33;;;;;;;0.20;0.20;;;17.90;73.90;;;;;;5070386;28;20094;-66
2023/06/27 05:49:59;;;;;;;0.00;0.00;;;17.90;73.90;;;;;;5068563;28;20450;-65
2023/06/27 05:52:24;;;;;;;0.00;0.00;;;18.00;73.20;;;;;;5070511;28;20064;-65
2023/06/27 05:54:51;;;;;;;0.00;0.00;;;18.10;73.00;;;;;;5070766;28;20480;-65
2023/06/27 05:57:17;;;;;;;0.00;0.00;;;18.10;72.40;;;;;;5068970;28;20044;-65
2023/06/27 05:59:42;;;;;;;0.00;0.00;;;18.20;71.90;;;;;;5070313;28;20487;-66
2023/06/27 06:02:08;;;;;;;0.00;0.00;;;18.20;70.20;;;;;;5070531;28;20048;-65
2023/06/27 06:04:33;;;;;;;0.00;0.00;;;18.30;69.70;;;;;;5070067;28;20368;-64
2023/06/27 06:06:59;;;;;;;0.00;0.00;;;18.40;69.90;;;;;;5069757;28;20083;-65
2023/06/27 06:09:28;;;;;;;0.00;0.00;;;18.50;68.20;;;;;;5052790;28;20059;-66
2023/06/27 06:11:53;;;;;;;0.20;0.20;;;18.60;68.90;;;;;;5069310;28;20444;-66
2023/06/27 06:14:19;;;;;;;0.10;0.10;;;18.70;67.80;;;;;;5068618;28;20060;-67
2023/06/27 06:16:45;;;;;;;0.00;0.00;;;18.80;66.40;;;;;;5069771;28;20040;-67
2023/06/27 06:19:11;;;;;;;0.20;0.20;;;18.90;64.30;;;;;;5068628;28;20181;-67
2023/06/27 06:21:37;;;;;;;0.00;0.00;;;19.00;64.00;;;;;;5070106;28;20056;-68
2023/06/27 06:24:03;;;;;;;0.55;0.55;;;19.10;63.20;;;;;;5046610;28;20059;-71
2023/06/27 06:26:28;;;;;;;0.00;0.00;;;19.10;62.40;;;;;;5067559;28;20088;-69
2023/06/27 06:28:54;;;;;;;0.00;0.00;;;19.30;62.60;;;;;;5069866;28;20057;-69
2023/06/27 06:31:21;;;;;;;0.05;0.05;;;19.40;62.20;;;;;;5069199;28;20052;-71
2023/06/27 06:33:48;;;;;;;0.00;0.00;;;19.50;62.70;;;;;;5069951;28;20467;-71
2023/06/27 06:36:14;;;;;;;0.45;0.45;;;19.50;60.90;;;;;;5050845;28;20121;-69
2023/06/27 06:38:40;;;;;;;0.00;0.00;;;19.50;61.20;;;;;;5061641;28;20556;-69
2023/06/27 06:41:06;;;;;;;0.00;0.00;;;19.40;59.00;;;;;;5063447;28;20043;-68
2023/06/27 06:43:32;;;;;;;0.00;0.00;;;19.40;60.10;;;;;;5067187;28;20049;-68
2023/06/27 06:45:58;;;;;;;0.00;0.00;;;19.40;58.80;;;;;;5066411;28;20131;-68
2023/06/27 06:48:23;;;;;;;0.00;0.00;;;19.40;60.50;;;;;;5067670;28;20516;-68
2023/06/27 06:50:53;;;;;;;0.43;0.43;;;19.40;60.30;;;;;;5065686;28;20040;-70
2023/06/27 06:53:19;;;;;;;0.00;0.00;;;19.40;61.00;;;;;;5067450;28;20057;-70
2023/06/27 06:55:45;;;;;;;0.00;0.00;;;19.40;61.10;;;;;;5068590;28;21356;-70
2023/06/27 06:58:11;;;;;;;0.03;0.03;;;19.30;61.10;;;;;;5069720;28;20147;-70
2023/06/27 07:00:36;;;;;;;0.00;0.00;;;19.30;61.90;;;;;;5067074;28;20040;-70
2023/06/27 07:03:08;;;;;;;0.00;0.00;;;19.30;62.90;;;;;;5068385;28;20044;-68
2023/06/27 07:05:37;;;;;;;0.00;0.00;;;19.30;63.10;;;;;;5049686;28;20044;-69
2023/06/27 07:08:04;;;;;;;0.00;0.00;;;19.30;63.00;;;;;;5069374;28;20070;-67
2023/06/27 07:10:30;;;;;;;0.10;0.10;;;19.30;62.80;;;;;;5069167;28;20041;-67
2023/06/27 07:12:55;;;;;;;0.10;0.10;;;19.30;63.20;;;;;;5068610;28;20516;-67
2023/06/27 07:15:23;;;;;;;0.00;0.00;;;19.30;64.70;;;;;;5069498;28;20080;-67
2023/06/27 07:17:50;;;;;;;0.00;0.00;;;19.40;65.20;;;;;;5069993;28;20048;-67
2023/06/27 07:20:16;;;;;;;0.00;0.00;;;19.50;65.30;;;;;;5069831;28;20767;-67
2023/06/27 07:22:42;;;;;;;0.00;0.00;;;19.50;64.00;;;;;;5068132;28;20489;-67
2023/06/27 07:25:08;;;;;;;0.00;0.00;;;19.30;64.00;;;;;;5069679;28;20047;-66
2023/06/27 07:27:34;;;;;;;0.00;0.00;;;19.30;63.70;;;;;;5069476;28;20560;-67
2023/06/27 07:29:59;;;;;;;0.73;0.73;;;19.30;65.00;;;;;;5068153;28;20040;-66
2023/06/27 07:32:25;;;;;;;0.00;0.00;;;19.20;65.20;;;;;;5051919;28;20052;-67
2023/06/27 07:34:51;;;;;;;0.00;0.00;;;19.20;65.00;;;;;;5069045;28;20059;-67
2023/06/27 07:37:16;;;;;;;0.00;0.00;;;19.20;65.10;;;;;;5068109;28;20048;-67
2023/06/27 07:39:42;;;;;;;0.00;0.00;;;19.20;65.40;;;;;;5051477;28;20050;-66
2023/06/27 07:42:07;;;;;;;0.00;0.00;;;19.30;65.60;;;;;;5069557;28;20041;-66
2023/06/27 07:44:34;;;;;;;0.00;0.00;;;19.30;65.80;;;;;;5069353;28;20124;-67
2023/06/27 07:46:59;;;;;;;0.00;0.00;;;19.30;65.80;;;;;;5067548;28;20135;-66
2023/06/27 07:49:25;;;;;;;0.00;0.00;;;19.40;66.00;;;;;;5069305;28;20169;-66
2023/06/27 07:51:51;;;;;;;0.45;0.32;;;19.50;66.30;;;;;;5067953;28;20514;-67
2023/06/27 07:54:19;;;;;;;0.00;0.00;;;19.40;66.80;;;;;;5068962;28;20058;-66
2023/06/27 07:56:45;;;;;;;0.00;0.00;;;19.40;66.80;;;;;;5068860;28;20052;-66
2023/06/27 07:59:12;;;;;;;0.00;0.00;;;19.50;67.10;;;;;;5068425;28;20048;-68
2023/06/27 08:01:40;;;;;;;0.63;0.28;;;19.50;66.70;;;;;;5068689;28;20149;-68
2023/06/27 08:04:05;;;;;;;0.70;0.60;;;19.50;67.20;;;;;;5068839;28;20041;-67
2023/06/27 08:06:31;;;;;;;0.00;0.00;;;19.60;66.60;;;;;;5068956;28;20516;-67
2023/06/27 08:08:57;;;;;;;0.00;0.00;;;19.60;67.10;;;;;;5069183;28;20044;-67
2023/06/27 08:11:23;;;;;;;0.00;0.00;;;19.70;66.00;;;;;;5067682;28;20584;-67
2023/06/27 08:13:48;;;;;;;0.00;0.00;;;19.70;65.50;;;;;;5068362;28;20048;-67
2023/06/27 08:16:14;;;;;;;0.00;0.00;;;19.90;66.10;;;;;;5069199;28;20052;-67
2023/06/27 08:18:39;;;;;;;0.70;0.70;;;20.00;63.60;;;;;;5066425;28;20098;-66
2023/06/27 08:21:05;;;;;;;0.00;0.00;;;20.10;64.30;;;;;;5057531;28;20051;-65
2023/06/27 08:23:31;;;;;;;0.00;0.00;;;20.20;64.20;;;;;;5061611;28;20080;-66
2023/06/27 08:25:56;;;;;;;0.10;0.10;;;20.30;62.40;;;;;;5067874;28;20393;-65
2023/06/27 08:28:22;;;;;;;5.38;0.88;;;20.30;62.60;;;;;;5067684;28;20055;-66
2023/06/27 08:30:47;;;;;;;0.00;0.00;;;20.30;62.30;;;;;;5068124;28;20044;-66
2023/06/27 08:33:13;;;;;;;0.00;0.00;;;20.10;61.30;;;;;;5068024;28;20162;-65
2023/06/27 08:35:39;;;;;;;0.00;0.00;;;20.10;62.10;;;;;;5067568;28;20155;-66
2023/06/27 08:38:05;;;;;;;0.00;0.00;;;20.10;61.70;;;;;;5067653;28;20053;-66
2023/06/27 08:40:36;;;;;;;0.00;0.00;;;20.10;62.30;;;;;;5074318;28;20049;-66
2023/06/27 08:43:04;;;;;;;;;;;20.10;62.70;;;;;;5066878;28;20057;-66
2023/06/27 08:45:30;;;;;;;0.00;0.00;;;20.10;63.30;;;;;;5063836;28;19921;-63
2023/06/27 08:47:56;;;;;;;0.00;0.00;;;20.00;63.70;;;;;;5055817;28;20052;-63
2023/06/27 08:50:22;;;;;;;0.00;0.00;;;20.00;64.00;;;;;;5048699;28;20493;-64
2023/06/27 08:52:54;;;;;;;0.00;0.00;;;19.90;63.20;;;;;;5066576;28;20048;-66
2023/06/27 08:55:30;;;;;;;0.00;0.00;;;20.00;65.60;;;;;;5067942;28;20051;-66
2023/06/27 08:57:57;;;;;;;0.00;0.00;;;20.00;65.10;;;;;;5067424;28;20048;-66
2023/06/27 09:00:26;;;;;;;0.00;0.00;;;20.00;63.80;;;;;;5067758;28;20393;-65
2023/06/27 09:02:52;;;;;;;0.00;0.00;;;20.00;65.30;;;;;;5067520;28;20513;-65
2023/06/27 09:05:18;;;;;;;0.45;0.45;;;19.90;63.60;;;;;;5067494;28;20036;-66
2023/06/27 09:07:44;;;;;;;0.00;0.00;;;19.90;63.90;;;;;;5067009;28;20100;-66
2023/06/27 09:10:10;;;;;;;0.00;0.00;;;19.90;63.90;;;;;;5067840;28;20092;-66
2023/06/27 09:12:38;;;;;;;0.20;0.20;;;19.90;61.90;;;;;;5066271;28;20505;-65
2023/06/27 09:15:04;;;;;;;0.00;0.00;;;19.90;63.60;;;;;;5067426;28;20445;-66
2023/06/27 09:17:30;;;;;;;0.00;0.00;;;20.00;64.00;;;;;;5067726;28;20063;-65
2023/06/27 09:19:55;;;;;;;0.10;0.10;;;20.00;63.90;;;;;;5066767;28;20044;-66
2023/06/27 09:22:23;;;;;;;0.13;0.13;;;20.00;61.40;;;;;;5065717;28;20045;-65
2023/06/27 09:24:49;;;;;;;0.00;0.00;;;20.10;62.10;;;;;;5068888;28;20053;-65
2023/06/27 09:27:31;;;;;;;0.00;0.00;;;20.00;61.50;;;;;;5071402;28;20062;-66
2023/06/27 09:30:12;;;;;;;0.00;0.00;;;20.10;61.70;;;;;;5068678;28;20050;-66
2023/06/27 09:32:56;;;;;;;0.00;0.00;;;20.20;61.20;;;;;;5070666;28;20060;-66
2023/06/27 09:35:23;;;;;;;0.00;0.00;;;20.40;61.70;;;;;;5070567;28;20089;-65
2023/06/27 09:37:50;;;;;;;0.00;0.00;;;20.50;61.20;;;;;;5069412;28;20056;-66
2023/06/27 09:40:25;;;;;;;0.25;0.25;;;20.60;59.90;;;;;;5069012;28;20056;-65
2023/06/27 09:42:52;;;;;;;0.00;0.00;;;20.60;59.50;;;;;;5069233;28;20425;-65
2023/06/27 09:45:18;;;;;;;0.00;0.00;;;20.60;57.10;;;;;;5070789;28;20535;-65
2023/06/27 09:47:46;;;;;;;0.00;0.00;;;20.50;58.30;;;;;;5069462;28;20413;-65
2023/06/27 09:50:12;;;;;;;0.00;0.00;;;20.60;56.10;;;;;;5070857;28;20033;-65
2023/06/27 09:52:38;;;;;;;0.30;0.30;;;20.40;56.20;;;;;;5069718;28;20086;-64
2023/06/27 09:55:04;;;;;;;0.00;0.00;;;20.50;57.10;;;;;;5070279;28;20409;-65
2023/06/27 09:57:30;;;;;;;0.00;0.00;;;20.50;58.00;;;;;;5061489;28;20052;-65
2023/06/27 09:59:59;;;;;;;0.00;0.00;;;20.60;58.50;;;;;;5070539;28;20052;-65
2023/06/27 10:02:31;;;;;;;0.00;0.00;;;20.80;58.10;;;;;;5069174;28;20044;-65
2023/06/27 10:04:57;;;;;;;0.00;0.00;;;20.90;56.70;;;;;;5070083;28;20040;-65
2023/06/27 10:07:24;;;;;;;0.00;0.00;;;20.90;57.30;;;;;;5065359;28;20052;-65
2023/06/27 10:09:50;;;;;;;0.00;0.00;;;20.80;56.90;;;;;;5070301;28;20105;-65
2023/06/27 10:12:16;;;;;;;0.00;0.00;;;20.90;57.00;;;;;;5069301;28;20099;-65
2023/06/27 10:14:43;;;;;;;0.00;0.00;;;21.00;56.80;;;;;;5069194;28;20056;-64
2023/06/27 10:17:10;;;;;;;0.00;0.00;;;21.00;56.30;;;;;;5070398;28;20509;-65
2023/06/27 10:19:37;;;;;;;0.00;0.00;;;21.10;55.60;;;;;;5069559;28;20052;-66
2023/06/27 10:22:08;;;;;;;0.00;0.00;;;21.00;56.30;;;;;;5070863;28;20040;-66
2023/06/27 10:24:34;;;;;;;0.00;0.00;;;21.10;54.30;;;;;;5070217;28;20045;-66
2023/06/27 10:27:01;;;;;;;0.00;0.00;;;21.10;55.20;;;;;;5068058;28;20051;-65
2023/06/27 10:29:31;;;;;;;0.00;0.00;;;21.10;55.60;;;;;;5070546;28;20072;-65
2023/06/27 10:31:58;;;;;;;0.00;0.00;;;21.10;58.50;;;;;;5070973;28;20075;-65
2023/06/27 10:34:30;;;;;;;0.00;0.00;;;21.20;58.20;;;;;;5070378;28;20045;-65
2023/06/27 10:36:59;;;;;;;0.00;0.00;;;21.00;57.40;;;;;;5066642;28;20040;-65
2023/06/27 10:39:32;;;;;;;0.00;0.00;;;21.00;58.10;;;;;;5070166;28;20048;-65
2023/06/27 10:42:06;;;;;;;0.00;0.00;;;21.00;58.20;;;;;;5053457;28;20052;-65
2023/06/27 10:44:35;;;;;;;0.00;0.00;;;20.90;56.50;;;;;;5056706;28;20550;-65
2023/06/27 10:47:16;;;;;;;0.00;0.00;;;20.90;57.20;;;;;;5069263;28;20451;-65
2023/06/27 10:49:46;;;;;;;0.00;0.00;;;20.70;59.00;;;;;;5065390;28;20048;-65
2023/06/27 10:52:20;;;;;;;0.00;0.00;;;20.60;55.40;;;;;;5069866;28;20055;-66
2023/06/27 10:54:48;;;;;;;0.93;0.65;;;20.90;56.10;;;;;;5069660;28;20091;-66
2023/06/27 10:57:16;;;;;;;0.00;0.00;;;21.00;58.60;;;;;;5069242;28;20491;-66
2023/06/27 10:59:45;;;;;;;0.00;0.00;;;21.10;56.40;;;;;;5069653;28;20041;-66
2023/06/27 11:02:12;;;;;;;0.00;0.00;;;21.10;57.20;;;;;;5069955;28;20568;-65
2023/06/27 11:04:41;;;;;;;0.00;0.00;;;21.20;56.90;;;;;;5068570;28;20057;-66
2023/06/27 11:07:10;;;;;;;0.00;0.00;;;21.20;57.60;;;;;;5069978;28;20090;-66
2023/06/27 11:09:36;;;;;;;0.00;0.00;;;21.10;56.30;;;;;;5067997;28;20077;-66
2023/06/27 11:12:14;;;;;;;0.00;0.00;;;21.20;57.10;;;;;;5050068;28;20059;-65
2023/06/27 11:14:44;;;;;;;0.00;0.00;;;21.20;56.60;;;;;;5058259;28;20506;-66
2023/06/27 11:17:13;;;;;;;0.08;0.08;;;21.30;55.80;;;;;;5049986;28;20072;-66
2023/06/27 11:19:42;;;;;;;0.00;0.00;;;21.30;56.20;;;;;;5068784;28;20516;-65
2023/06/27 11:22:08;;;;;;;0.00;0.00;;;21.40;55.90;;;;;;5069760;28;20101;-66
2023/06/27 11:24:34;;;;;;;0.00;0.00;;;21.50;53.90;;;;;;5061671;28;20041;-66
2023/06/27 11:27:06;;;;;;;15.45;2.20;;;21.30;54.60;;;;;;5050019;28;20171;-66
2023/06/27 11:29:33;;;;;;;;;;;21.30;54.50;;;;;;5062126;28;20050;-67
2023/06/27 11:31:59;;;;;;;0.10;0.10;;;21.50;53.60;;;;;;5067704;28;19946;-67
2023/06/27 11:34:25;;;;;;;0.00;0.00;;;21.30;54.10;;;;;;5053629;28;20044;-67
2023/06/27 11:36:51;;;;;;;0.00;0.00;;;21.40;54.20;;;;;;5068570;28;20047;-67
2023/06/27 11:39:17;;;;;;;0.00;0.00;;;21.40;53.20;;;;;;5069065;28;20036;-65
2023/06/27 11:41:44;;;;;;;0.00;0.00;;;21.50;51.40;;;;;;5065846;28;20102;-70
2023/06/27 11:44:10;;;;;;;1.27;1.02;;;21.40;50.60;;;;;;5067283;28;20045;-66
2023/06/27 11:46:49;;;;;;;0.00;0.00;;;21.50;51.90;;;;;;5066186;28;20508;-66
2023/06/27 11:49:16;;;;;;;0.00;0.00;;;21.40;50.60;;;;;;5067151;28;20493;-67
2023/06/27 11:51:42;;;;;;;0.10;0.10;;;21.40;50.60;;;;;;5068859;28;20049;-67
2023/06/27 11:54:08;;;;;;;0.00;0.00;;;21.50;50.80;;;;;;5067725;28;20052;-66
2023/06/27 11:56:38;;;;;;;0.00;0.00;;;21.50;51.30;;;;;;5068601;28;20424;-67
2023/06/27 11:59:04;;;;;;;0.00;0.00;;;21.60;53.30;;;;;;5060536;28;20042;-66
2023/06/27 12:01:33;;;;;;;0.00;0.00;;;21.70;52.50;;;;;;5068744;28;20049;-67
2023/06/27 12:03:59;;;;;;;0.00;0.00;;;21.60;52.30;;;;;;5069111;28;20055;-67
2023/06/27 12:06:29;;;;;;;0.00;0.00;;;21.50;51.90;;;;;;5069096;28;20051;-67
2023/06/27 12:08:56;;;;;;;0.00;0.00;;;21.50;52.10;;;;;;5067874;28;20098;-67
2023/06/27 12:11:36;;;;;;;0.00;0.00;;;21.40;52.90;;;;;;5068720;28;20047;-67
2023/06/27 12:14:03;;;;;;;0.00;0.00;;;21.30;52.30;;;;;;5068935;28;20072;-67
2023/06/27 12:16:33;;;;;;;0.00;0.00;;;21.20;53.40;;;;;;5067460;28;20055;-67
2023/06/27 12:19:07;;;;;;;0.00;0.00;;;21.10;51.60;;;;;;5068238;28;20040;-67
2023/06/27 12:21:33;;;;;;;0.00;0.00;;;21.30;52.40;;;;;;5068402;28;20493;-67
2023/06/27 12:23:58;;;;;;;0.00;0.00;;;21.30;51.50;;;;;;5062089;28;20047;-67
2023/06/27 12:26:24;;;;;;;0.00;0.00;;;21.20;51.40;;;;;;5049838;28;20098;-67
2023/06/27 12:29:00;;;;;;;0.00;0.00;;;21.10;53.00;;;;;;5065336;28;20405;-66
2023/06/27 12:31:27;;;;;;;0.00;0.00;;;21.00;53.20;;;;;;5066098;28;20094;-67
2023/06/27 12:33:53;;;;;;;0.10;0.10;;;21.10;52.70;;;;;;5066332;28;20051;-66
2023/06/27 12:36:23;;;;;;;0.08;0.08;;;21.20;53.70;;;;;;5066296;28;20051;-66
2023/06/27 12:38:53;;;;;;;0.00;0.00;;;21.40;55.60;;;;;;5066393;28;20036;-67
2023/06/27 12:41:20;;;;;;;0.05;0.05;;;21.40;54.70;;;;;;5064517;28;20048;-68
2023/06/27 12:43:46;;;;;;;0.00;0.00;;;21.50;52.60;;;;;;5066112;28;20044;-67
2023/06/27 12:46:12;;;;;;;0.00;0.00;;;21.50;53.80;;;;;;5066660;28;20046;-67
2023/06/27 12:48:38;;;;;;;0.00;0.00;;;21.50;52.50;;;;;;5067737;28;20111;-67